Time;durP1;ratioP1;P1;durP2;ratioP2;P2;SDS_P1;SDS_P2;PMS_P1;PMS_P2;Temp;Humidity;BMP_temperature;BMP_pressure;BME280_temperature;BME280_humidity;BME280_pressure;Samples;Min_cycle;Max_cycle;Signal;HPM_P1;HPM_P2
2023/05/04 00:01:50;;;;;;;1.02;0.77;;;;;;;19.92;43.77;102287.22;19873071;29;20054;-66
2023/05/04 00:11:52;;;;;;;0.88;0.80;;;;;;;19.83;43.82;102259.00;19912397;29;20093;-66
2023/05/04 00:21:53;;;;;;;0.98;0.80;;;;;;;19.88;43.69;102261.38;19882571;29;20543;-66
2023/05/04 00:31:55;;;;;;;0.88;0.73;;;;;;;19.85;43.61;102254.34;19881502;29;20055;-66
2023/05/04 00:41:58;;;;;;;1.02;0.80;;;;;;;19.84;43.59;102252.63;19872265;29;20047;-66
2023/05/04 00:52:00;;;;;;;1.23;0.80;;;;;;;19.80;43.75;102232.22;19910422;29;20073;-66
2023/05/04 01:02:02;;;;;;;0.88;0.75;;;;;;;19.79;43.62;102222.41;19879002;29;20575;-66
2023/05/04 01:12:06;;;;;;;1.75;1.00;;;;;;;19.79;43.35;102225.09;19879113;29;20088;-66
2023/05/04 01:22:08;;;;;;;1.00;0.90;;;;;;;19.78;43.47;102204.47;19863901;29;20527;-67
2023/05/04 01:32:11;;;;;;;1.38;0.98;;;;;;;19.77;43.18;102202.75;19859619;29;20516;-66
2023/05/04 01:42:12;;;;;;;1.00;0.88;;;;;;;19.75;43.08;102193.88;19888805;29;20050;-66
2023/05/04 01:52:14;;;;;;;1.40;0.85;;;;;;;19.73;42.91;102198.56;19887655;29;20058;-66
2023/05/04 02:02:16;;;;;;;1.80;0.98;;;;;;;19.70;43.19;102185.28;19887017;29;20083;-66
2023/05/04 02:12:17;;;;;;;0.90;0.80;;;;;;;19.64;43.16;102175.78;19897642;29;20082;-66
2023/05/04 02:22:19;;;;;;;1.42;0.95;;;;;;;19.66;42.95;102178.38;19885511;29;20119;-66
2023/05/04 02:32:21;;;;;;;1.45;0.90;;;;;;;19.63;42.99;102162.41;19894269;29;20405;-66
2023/05/04 02:42:23;;;;;;;1.08;0.77;;;;;;;19.59;43.01;102152.81;19893052;29;20082;-66
2023/05/04 02:52:25;;;;;;;2.15;1.58;;;;;;;19.55;43.25;102139.56;19877051;29;20062;-69
2023/05/04 03:02:26;;;;;;;2.80;1.00;;;;;;;19.58;43.48;102138.44;19874425;29;20123;-70
2023/05/04 03:12:28;;;;;;;1.38;0.82;;;;;;;19.53;43.88;102135.25;19904985;29;20054;-69
2023/05/04 03:22:29;;;;;;;1.13;0.80;;;;;;;19.52;43.88;102115.50;19958692;29;20065;-69
2023/05/04 03:32:31;;;;;;;1.40;0.90;;;;;;;19.50;43.77;102105.75;19960509;29;20054;-69
2023/05/04 03:42:33;;;;;;;1.50;1.10;;;;;;;19.48;43.68;102102.31;19884589;29;20070;-69
2023/05/04 03:52:34;;;;;;;1.42;0.95;;;;;;;19.46;43.40;102099.75;19883299;29;20107;-69
2023/05/04 04:02:37;;;;;;;2.13;1.20;;;;;;;19.44;43.50;102098.97;19897901;29;20082;-69
2023/05/04 04:12:38;;;;;;;2.13;1.33;;;;;;;19.39;43.53;102084.97;19882311;29;20063;-69
2023/05/04 04:22:40;;;;;;;1.60;1.00;;;;;;;19.41;43.47;102085.72;19882241;29;20076;-69
2023/05/04 04:32:42;;;;;;;1.75;1.30;;;;;;;19.37;43.52;102070.72;19881254;29;20084;-69
2023/05/04 04:42:43;;;;;;;2.28;1.20;;;;;;;19.32;43.60;102065.69;19881030;29;20059;-69
2023/05/04 04:52:45;;;;;;;1.20;1.10;;;;;;;19.34;43.80;102076.38;19880108;29;20116;-69
2023/05/04 05:02:46;;;;;;;2.05;1.17;;;;;;;19.34;43.91;102073.66;19879273;29;20055;-69
2023/05/04 05:12:49;;;;;;;1.23;0.98;;;;;;;19.34;43.83;102073.66;19879770;29;20150;-69
2023/05/04 05:22:51;;;;;;;1.10;0.80;;;;;;;19.36;43.88;102066.31;19873250;29;20427;-71
2023/05/04 05:32:52;;;;;;;1.85;1.10;;;;;;;19.41;44.07;102072.22;19911076;29;20054;-70
2023/05/04 05:42:54;;;;;;;1.20;1.00;;;;;;;19.45;44.19;102070.16;19886805;29;20083;-70
2023/05/04 05:52:56;;;;;;;2.17;1.00;;;;;;;19.45;44.10;102071.03;19903826;29;20059;-70
2023/05/04 06:02:57;;;;;;;1.35;0.98;;;;;;;19.46;43.95;102069.16;19895424;29;20063;-70
2023/05/04 06:13:00;;;;;;;1.23;1.00;;;;;;;19.49;43.85;102069.81;19900442;29;20092;-70
2023/05/04 06:23:01;;;;;;;2.95;1.48;;;;;;;19.53;43.74;102054.22;19908086;29;20058;-69
2023/05/04 06:33:03;;;;;;;2.10;1.30;;;;;;;19.56;43.60;102049.44;19910558;29;20232;-69
2023/05/04 06:43:05;;;;;;;1.77;1.25;;;;;;;19.60;43.53;102050.03;19927683;29;20139;-70
2023/05/04 06:53:08;;;;;;;1.25;1.05;;;;;;;19.66;43.60;102040.63;19916316;29;20057;-70
2023/05/04 07:03:10;;;;;;;2.45;1.55;;;;;;;19.73;43.51;102031.03;19891726;29;20056;-72
2023/05/04 07:13:12;;;;;;;2.58;1.58;;;;;;;19.80;43.76;102018.75;19904036;29;20099;-70
2023/05/04 07:23:14;;;;;;;2.35;1.15;;;;;;;19.92;43.67;102014.25;19908360;29;20457;-70
2023/05/04 07:33:16;;;;;;;1.60;1.38;;;;;;;20.10;43.36;102002.94;19912285;29;20091;-69
2023/05/04 07:43:17;;;;;;;2.05;1.30;;;;;;;20.25;43.07;101985.50;19904579;29;20488;-70
2023/05/04 07:53:24;;;;;;;2.33;1.30;;;;;;;20.65;42.67;101965.09;19907841;29;20127;-70
2023/05/04 08:03:25;;;;;;;4.07;1.45;;;;;;;21.17;41.97;101966.22;19917374;29;20062;-70
2023/05/04 08:13:27;;;;;;;1.63;1.42;;;;;;;21.49;41.23;101960.72;19904942;29;20046;-70
2023/05/04 08:23:30;;;;;;;3.30;1.60;;;;;;;21.66;41.20;101939.47;19906343;29;20090;-70
2023/05/04 08:33:32;;;;;;;1.52;1.20;;;;;;;22.47;40.23;101937.66;19909410;29;20432;-70
2023/05/04 08:43:35;;;;;;;2.63;1.45;;;;;;;22.76;39.65;101944.97;19883849;29;20710;-70
2023/05/04 08:53:40;;;;;;;2.33;1.30;;;;;;;22.49;39.76;101930.22;19880856;29;20088;-70
2023/05/04 09:03:43;;;;;;;2.70;1.40;;;;;;;21.97;40.45;101929.44;19885079;29;20054;-70
2023/05/04 09:13:45;;;;;;;2.27;1.43;;;;;;;21.70;41.12;101917.34;19878185;29;20054;-70
2023/05/04 09:23:48;;;;;;;1.77;1.33;;;;;;;21.56;41.66;101905.00;19878318;29;20090;-68
2023/05/04 09:33:50;;;;;;;3.85;1.45;;;;;;;21.50;42.31;101892.00;19871480;29;20116;-68
2023/05/04 09:43:54;;;;;;;5.43;1.17;;;;;;;21.49;42.73;101887.56;19890573;29;20050;-67
2023/05/04 09:54:00;;;;;;;1.77;1.00;;;;;;;21.48;42.90;101877.72;19882156;29;20064;-67
2023/05/04 10:04:02;;;;;;;1.42;1.08;;;;;;;21.45;42.97;101859.03;19898421;29;20047;-67
2023/05/04 10:14:06;;;;;;;2.15;1.00;;;;;;;21.42;43.01;101856.59;19885010;29;20078;-67
2023/05/04 10:24:35;;;;;;;2.13;1.00;;;;;;;21.43;42.97;101852.91;19880249;29;20116;-68
2023/05/04 10:34:36;;;;;;;1.42;1.10;;;;;;;21.26;43.31;101809.22;19839762;29;20059;-68
2023/05/04 10:44:51;;;;;;;2.55;0.95;;;;;;;21.42;43.46;101815.97;19861666;29;20055;-67
2023/05/04 10:55:00;;;;;;;2.97;1.20;;;;;;;21.39;43.46;101805.41;19902605;29;20062;-65
2023/05/04 11:05:04;;;;;;;1.55;1.00;;;;;;;21.41;43.50;101773.63;19894341;29;20055;-69
2023/05/04 11:15:09;;;;;;;1.60;0.73;;;;;;;21.41;43.42;101779.03;19862815;29;20062;-67
2023/05/04 11:25:10;;;;;;;3.10;1.17;;;;;;;21.40;43.37;101752.94;19881614;29;20042;-67
2023/05/04 11:35:19;;;;;;;1.52;0.95;;;;;;;21.40;43.35;101742.13;19880417;29;20059;-67
2023/05/04 11:45:26;;;;;;;0.80;0.75;;;;;;;21.41;43.44;101733.00;19866915;29;20055;-68
2023/05/04 11:55:29;;;;;;;1.85;1.00;;;;;;;21.43;43.71;101728.28;19850705;29;20527;-67
2023/05/04 12:05:33;;;;;;;1.25;0.90;;;;;;;21.44;43.91;101711.03;19885243;29;20082;-65
2023/05/04 12:15:35;;;;;;;2.70;0.93;;;;;;;21.43;43.71;101695.78;19851868;29;20054;-68
2023/05/04 12:25:37;;;;;;;1.60;0.80;;;;;;;21.43;43.61;101682.25;19889050;29;20058;-67
2023/05/04 12:35:55;;;;;;;0.98;0.82;;;;;;;21.43;43.50;101657.88;19893207;29;20777;-66
2023/05/04 12:45:57;;;;;;;1.55;0.80;;;;;;;21.41;43.37;101651.72;19908166;29;20061;-67
2023/05/04 12:55:59;;;;;;;1.70;0.90;;;;;;;21.39;43.52;101642.91;19909192;29;20065;-67
2023/05/04 13:06:01;;;;;;;1.83;1.40;;;;;;;21.38;43.50;101620.34;19898609;29;20051;-67
2023/05/04 13:16:04;;;;;;;1.35;1.15;;;;;;;21.39;43.53;101610.41;19896191;29;20493;-67
2023/05/04 13:26:06;;;;;;;2.08;0.95;;;;;;;21.38;43.54;101600.56;19882164;29;20055;-67
2023/05/04 13:36:07;;;;;;;0.93;0.70;;;;;;;21.36;43.47;101581.72;19904396;29;20149;-66
2023/05/04 13:46:09;;;;;;;1.15;0.85;;;;;;;21.37;43.61;101580.72;19902190;29;20099;-67
2023/05/04 13:56:11;;;;;;;1.55;0.80;;;;;;;21.38;43.62;101568.91;19921584;29;20473;-67
2023/05/04 14:06:12;;;;;;;1.42;0.98;;;;;;;21.39;43.71;101545.41;19917229;29;20057;-67
2023/05/04 14:16:14;;;;;;;1.45;0.90;;;;;;;21.38;43.72;101536.41;19896113;29;20090;-67
2023/05/04 14:26:16;;;;;;;7.80;1.00;;;;;;;21.36;43.87;101524.00;19889350;29;20651;-66
2023/05/04 14:36:17;;;;;;;2.22;1.15;;;;;;;21.35;43.77;101514.19;19906512;29;20065;-66
2023/05/04 14:46:19;;;;;;;1.77;1.15;;;;;;;21.38;43.85;101497.63;19899407;29;20066;-66
2023/05/04 14:56:22;;;;;;;1.58;1.13;;;;;;;21.36;43.70;101483.38;19918965;29;20765;-65
2023/05/04 15:06:23;;;;;;;1.77;1.20;;;;;;;21.32;43.93;101468.44;19901779;29;20061;-66
2023/05/04 15:16:31;;;;;;;1.58;1.00;;;;;;;21.29;44.02;101456.91;19893721;29;20480;-66
2023/05/04 15:26:33;;;;;;;1.70;1.00;;;;;;;21.28;44.11;101452.47;19860815;29;20067;-64
2023/05/04 15:36:34;;;;;;;1.55;0.77;;;;;;;21.25;44.37;101451.91;19858423;29;20043;-65
2023/05/04 15:46:36;;;;;;;1.00;0.90;;;;;;;21.25;45.14;101450.06;19859048;29;20051;-64
2023/05/04 15:56:38;;;;;;;3.35;1.10;;;;;;;21.34;46.24;101439.34;19868790;29;20071;-63
2023/05/04 16:06:39;;;;;;;3.22;1.20;;;;;;;21.38;47.32;101425.34;19862822;29;20123;-62
2023/05/04 16:16:41;;;;;;;1.10;0.90;;;;;;;21.40;48.65;101401.69;19903465;29;20070;-62
2023/05/04 16:26:43;;;;;;;0.90;0.90;;;;;;;21.42;48.73;101394.25;19888411;29;20061;-62
2023/05/04 16:36:45;;;;;;;0.82;0.70;;;;;;;21.39;48.36;101393.72;19857954;29;20501;-64
2023/05/04 16:46:49;;;;;;;1.35;0.95;;;;;;;21.30;47.66;101385.47;19871324;29;20625;-64
2023/05/04 16:56:51;;;;;;;3.97;1.25;;;;;;;21.23;47.94;101376.25;19857109;29;20054;-62
2023/05/04 17:06:53;;;;;;;1.73;1.00;;;;;;;21.19;48.23;101366.69;19855188;29;20130;-61
2023/05/04 17:16:54;;;;;;;2.33;1.52;;;;;;;21.16;49.55;101356.16;19852141;29;20065;-61
2023/05/04 17:26:56;;;;;;;2.88;1.05;;;;;;;21.11;50.13;101350.31;19851244;29;20051;-61
2023/05/04 17:36:57;;;;;;;1.85;1.20;;;;;;;21.05;50.35;101359.91;19851295;29;20042;-61
2023/05/04 17:46:59;;;;;;;5.03;1.65;;;;;;;21.01;50.28;101351.22;19850960;29;20524;-61
2023/05/04 17:57:00;;;;;;;2.92;1.20;;;;;;;20.98;49.79;101346.09;19866861;29;20101;-60
2023/05/04 18:07:03;;;;;;;2.72;1.30;;;;;;;20.93;49.40;101347.50;19937565;29;20051;-60
2023/05/04 18:17:04;;;;;;;4.32;1.67;;;;;;;20.85;49.04;101346.41;19900366;29;20058;-60
2023/05/04 18:27:06;;;;;;;2.50;1.15;;;;;;;20.76;48.62;101349.06;19884838;29;20055;-60
2023/05/04 18:37:08;;;;;;;1.75;1.10;;;;;;;20.77;48.30;101356.19;19913062;29;20102;-60
2023/05/04 18:47:10;;;;;;;1.77;0.88;;;;;;;20.74;48.10;101368.19;19912000;29;20073;-60
2023/05/04 18:57:13;;;;;;;2.28;1.25;;;;;;;20.70;47.62;101367.59;19912464;29;20134;-60
2023/05/04 19:07:15;;;;;;;2.53;1.42;;;;;;;20.65;47.59;101372.59;19914939;29;20142;-60
2023/05/04 19:17:17;;;;;;;1.83;1.38;;;;;;;20.62;47.46;101369.34;19909926;29;20054;-60
2023/05/04 19:27:19;;;;;;;2.55;1.85;;;;;;;20.49;47.18;101358.78;19918912;29;20046;-60
2023/05/04 19:37:22;;;;;;;1.52;1.10;;;;;;;20.45;47.16;101360.91;19910207;29;20416;-60
2023/05/04 19:47:23;;;;;;;2.17;1.45;;;;;;;20.50;47.29;101387.53;19895270;29;20466;-60
2023/05/04 19:57:25;;;;;;;1.73;1.13;;;;;;;20.48;47.18;101382.25;19893228;29;20054;-60
2023/05/04 20:07:27;;;;;;;2.80;0.98;;;;;;;20.43;46.98;101382.72;19896131;29;20054;-60
2023/05/04 20:17:28;;;;;;;1.65;1.30;;;;;;;20.41;47.08;101364.91;19881623;29;20059;-60
2023/05/04 20:27:30;;;;;;;2.58;1.30;;;;;;;20.26;46.95;101343.69;19906449;29;20504;-60
2023/05/04 20:37:32;;;;;;;1.48;1.00;;;;;;;20.34;46.72;101348.41;19867735;29;20128;-60
2023/05/04 20:47:34;;;;;;;1.45;1.13;;;;;;;20.32;46.79;101344.13;19869163;29;20137;-60
2023/05/04 20:57:36;;;;;;;1.15;1.00;;;;;;;20.28;46.63;101341.72;19863359;29;20055;-60
2023/05/04 21:07:37;;;;;;;1.73;1.20;;;;;;;20.25;46.53;101328.47;19873942;29;20129;-60
2023/05/04 21:17:39;;;;;;;2.55;1.38;;;;;;;20.24;46.55;101315.09;19877205;29;20069;-60
2023/05/04 21:27:40;;;;;;;2.15;1.33;;;;;;;20.21;46.51;101305.44;19877126;29;20141;-60
2023/05/04 21:37:44;;;;;;;1.97;1.10;;;;;;;20.21;46.44;101291.03;19876487;29;20111;-60
2023/05/04 21:47:46;;;;;;;1.58;1.27;;;;;;;20.19;46.21;101287.63;19876012;29;20600;-60
2023/05/04 21:57:48;;;;;;;2.35;1.20;;;;;;;20.13;46.15;101264.75;19876737;29;20061;-60
2023/05/04 22:07:49;;;;;;;1.60;1.13;;;;;;;20.14;45.99;101267.28;19887513;29;20153;-60
2023/05/04 22:17:51;;;;;;;1.40;1.30;;;;;;;20.16;45.92;101266.28;19890271;29;20054;-60
2023/05/04 22:27:53;;;;;;;1.98;1.23;;;;;;;20.16;45.73;101255.47;19889779;29;20054;-60
2023/05/04 22:37:54;;;;;;;2.22;1.05;;;;;;;20.05;45.83;101238.41;19889455;29;20059;-60
2023/05/04 22:47:56;;;;;;;2.22;1.45;;;;;;;20.15;45.71;101243.81;19888650;29;20053;-60
2023/05/04 22:57:58;;;;;;;1.85;1.30;;;;;;;20.14;45.62;101251.06;19887853;29;20051;-60
2023/05/04 23:07:59;;;;;;;1.17;1.00;;;;;;;20.14;45.51;101248.38;19887560;29;20474;-60
2023/05/04 23:18:01;;;;;;;1.45;1.20;;;;;;;20.14;45.66;101250.22;19907565;29;20113;-60
2023/05/04 23:28:02;;;;;;;1.58;1.25;;;;;;;20.13;45.51;101240.41;19884405;29;20063;-60
2023/05/04 23:38:04;;;;;;;2.05;1.33;;;;;;;20.12;45.52;101236.00;19883879;29;20063;-60
2023/05/04 23:48:05;;;;;;;1.98;1.33;;;;;;;20.09;45.77;101229.03;19884602;29;20146;-60
2023/05/04 23:58:07;;;;;;;1.63;1.20;;;;;;;20.06;45.81;101213.09;19883072;29;20060;-60
